sensor_id;sensor_type;location;lat;lon;timestamp;temperature;humidity
13896;DHT22;7018;50.838;4.226;2022-07-11T00:02:19;17.60;99.90
13896;DHT22;7018;50.838;4.226;2022-07-11T00:04:46;17.50;99.90
13896;DHT22;7018;50.838;4.226;2022-07-11T00:07:14;17.50;99.90
13896;DHT22;7018;50.838;4.226;2022-07-11T00:09:41;17.40;99.90
13896;DHT22;7018;50.838;4.226;2022-07-11T00:12:08;17.50;99.90
13896;DHT22;7018;50.838;4.226;2022-07-11T00:14:36;17.50;99.90
13896;DHT22;7018;50.838;4.226;2022-07-11T00:17:06;17.30;99.90
13896;DHT22;7018;50.838;4.226;2022-07-11T00:19:37;17.30;99.90
13896;DHT22;7018;50.838;4.226;2022-07-11T00:22:04;17.40;99.90
13896;DHT22;7018;50.838;4.226;2022-07-11T00:24:32;17.40;99.90
13896;DHT22;7018;50.838;4.226;2022-07-11T00:27:00;17.30;99.90
13896;DHT22;7018;50.838;4.226;2022-07-11T00:29:27;17.30;99.90
13896;DHT22;7018;50.838;4.226;2022-07-11T00:31:56;17.30;99.90
13896;DHT22;7018;50.838;4.226;2022-07-11T00:34:23;17.20;99.90
13896;DHT22;7018;50.838;4.226;2022-07-11T00:36:49;17.20;99.90
13896;DHT22;7018;50.838;4.226;2022-07-11T00:39:16;17.10;99.90
13896;DHT22;7018;50.838;4.226;2022-07-11T00:41:43;17.20;99.90
13896;DHT22;7018;50.838;4.226;2022-07-11T00:44:11;17.20;99.90
13896;DHT22;7018;50.838;4.226;2022-07-11T00:46:38;17.20;99.90
13896;DHT22;7018;50.838;4.226;2022-07-11T00:49:05;17.20;99.90
13896;DHT22;7018;50.838;4.226;2022-07-11T00:51:33;17.20;99.90
13896;DHT22;7018;50.838;4.226;2022-07-11T00:53:59;17.10;99.90
13896;DHT22;7018;50.838;4.226;2022-07-11T00:56:27;17.10;99.90
13896;DHT22;7018;50.838;4.226;2022-07-11T00:58:56;17.10;99.90
13896;DHT22;7018;50.838;4.226;2022-07-11T01:01:23;17.10;99.90
13896;DHT22;7018;50.838;4.226;2022-07-11T01:03:51;17.10;99.90
13896;DHT22;7018;50.838;4.226;2022-07-11T01:06:18;17.00;99.90
13896;DHT22;7018;50.838;4.226;2022-07-11T01:08:45;16.90;99.90
13896;DHT22;7018;50.838;4.226;2022-07-11T01:11:12;16.80;99.90
13896;DHT22;7018;50.838;4.226;2022-07-11T01:13:42;16.80;99.90
13896;DHT22;7018;50.838;4.226;2022-07-11T01:16:19;16.90;99.90
13896;DHT22;7018;50.838;4.226;2022-07-11T01:18:49;16.80;99.90
13896;DHT22;7018;50.838;4.226;2022-07-11T01:23:56;16.70;99.90
13896;DHT22;7018;50.838;4.226;2022-07-11T01:26:24;16.80;99.90
13896;DHT22;7018;50.838;4.226;2022-07-11T01:28:51;16.80;99.90
13896;DHT22;7018;50.838;4.226;2022-07-11T01:31:18;16.80;99.90
13896;DHT22;7018;50.838;4.226;2022-07-11T01:33:45;16.80;99.90
13896;DHT22;7018;50.838;4.226;2022-07-11T01:36:12;16.70;99.90
13896;DHT22;7018;50.838;4.226;2022-07-11T01:38:39;16.70;99.90
13896;DHT22;7018;50.838;4.226;2022-07-11T01:41:06;16.70;99.90
13896;DHT22;7018;50.838;4.226;2022-07-11T01:43:33;16.70;99.90
13896;DHT22;7018;50.838;4.226;2022-07-11T01:46:00;16.60;99.90
13896;DHT22;7018;50.838;4.226;2022-07-11T01:48:28;16.60;99.90
13896;DHT22;7018;50.838;4.226;2022-07-11T01:50:55;16.50;99.90
13896;DHT22;7018;50.838;4.226;2022-07-11T01:53:22;16.60;99.90
13896;DHT22;7018;50.838;4.226;2022-07-11T01:55:49;16.50;99.90
13896;DHT22;7018;50.838;4.226;2022-07-11T01:58:36;16.30;99.90
13896;DHT22;7018;50.838;4.226;2022-07-11T02:01:03;16.30;99.90
13896;DHT22;7018;50.838;4.226;2022-07-11T02:03:30;16.40;99.90
13896;DHT22;7018;50.838;4.226;2022-07-11T02:05:57;16.40;99.90
13896;DHT22;7018;50.838;4.226;2022-07-11T02:08:24;16.30;99.90
13896;DHT22;7018;50.838;4.226;2022-07-11T02:10:51;16.20;99.90
13896;DHT22;7018;50.838;4.226;2022-07-11T02:13:19;16.20;99.90
13896;DHT22;7018;50.838;4.226;2022-07-11T02:15:47;16.20;99.90
13896;DHT22;7018;50.838;4.226;2022-07-11T02:18:15;16.10;99.90
13896;DHT22;7018;50.838;4.226;2022-07-11T02:20:42;16.10;99.90
13896;DHT22;7018;50.838;4.226;2022-07-11T02:23:09;16.00;99.90
13896;DHT22;7018;50.838;4.226;2022-07-11T02:25:36;16.00;99.90
13896;DHT22;7018;50.838;4.226;2022-07-11T02:28:07;16.00;99.90
13896;DHT22;7018;50.838;4.226;2022-07-11T02:30:37;15.90;99.90
13896;DHT22;7018;50.838;4.226;2022-07-11T02:33:05;15.90;99.90
13896;DHT22;7018;50.838;4.226;2022-07-11T02:35:34;15.80;99.90
13896;DHT22;7018;50.838;4.226;2022-07-11T02:38:01;15.70;99.90
13896;DHT22;7018;50.838;4.226;2022-07-11T02:40:28;15.60;99.90
13896;DHT22;7018;50.838;4.226;2022-07-11T02:42:55;15.80;99.90
13896;DHT22;7018;50.838;4.226;2022-07-11T02:45:22;15.80;99.90
13896;DHT22;7018;50.838;4.226;2022-07-11T02:47:49;15.70;99.90
13896;DHT22;7018;50.838;4.226;2022-07-11T02:50:16;15.70;99.90
13896;DHT22;7018;50.838;4.226;2022-07-11T02:52:43;15.60;99.90
13896;DHT22;7018;50.838;4.226;2022-07-11T02:55:11;15.60;99.90
13896;DHT22;7018;50.838;4.226;2022-07-11T02:57:39;15.60;99.90
13896;DHT22;7018;50.838;4.226;2022-07-11T03:00:10;15.50;99.90
13896;DHT22;7018;50.838;4.226;2022-07-11T03:02:37;15.50;99.90
13896;DHT22;7018;50.838;4.226;2022-07-11T03:05:04;15.40;99.90
13896;DHT22;7018;50.838;4.226;2022-07-11T03:07:32;15.40;99.90
13896;DHT22;7018;50.838;4.226;2022-07-11T03:09:58;15.50;99.90
13896;DHT22;7018;50.838;4.226;2022-07-11T03:12:25;15.50;99.90
13896;DHT22;7018;50.838;4.226;2022-07-11T03:14:52;15.50;99.90
13896;DHT22;7018;50.838;4.226;2022-07-11T03:17:19;15.50;99.90
13896;DHT22;7018;50.838;4.226;2022-07-11T03:19:46;15.40;99.90
13896;DHT22;7018;50.838;4.226;2022-07-11T03:22:14;15.50;99.90
13896;DHT22;7018;50.838;4.226;2022-07-11T03:24:41;15.60;99.90
13896;DHT22;7018;50.838;4.226;2022-07-11T03:27:08;15.60;99.90
13896;DHT22;7018;50.838;4.226;2022-07-11T03:29:37;15.70;99.90
13896;DHT22;7018;50.838;4.226;2022-07-11T03:32:04;15.80;99.90
13896;DHT22;7018;50.838;4.226;2022-07-11T03:34:32;15.70;99.90
13896;DHT22;7018;50.838;4.226;2022-07-11T03:36:58;15.60;99.90
13896;DHT22;7018;50.838;4.226;2022-07-11T03:39:25;15.50;99.90
13896;DHT22;7018;50.838;4.226;2022-07-11T03:41:52;15.50;99.90
13896;DHT22;7018;50.838;4.226;2022-07-11T03:44:19;15.40;99.90
13896;DHT22;7018;50.838;4.226;2022-07-11T03:46:46;15.50;99.90
13896;DHT22;7018;50.838;4.226;2022-07-11T03:49:14;15.50;99.90
13896;DHT22;7018;50.838;4.226;2022-07-11T03:51:41;15.60;99.90
13896;DHT22;7018;50.838;4.226;2022-07-11T03:54:08;15.50;99.90
13896;DHT22;7018;50.838;4.226;2022-07-11T03:56:35;15.70;99.90
13896;DHT22;7018;50.838;4.226;2022-07-11T03:59:02;15.70;99.90
13896;DHT22;7018;50.838;4.226;2022-07-11T04:01:29;15.70;99.90
13896;DHT22;7018;50.838;4.226;2022-07-11T04:03:56;15.70;99.90
13896;DHT22;7018;50.838;4.226;2022-07-11T04:06:23;15.70;99.90
13896;DHT22;7018;50.838;4.226;2022-07-11T04:08:50;15.70;99.90
13896;DHT22;7018;50.838;4.226;2022-07-11T04:11:17;15.70;99.90
13896;DHT22;7018;50.838;4.226;2022-07-11T04:13:44;15.70;99.90
13896;DHT22;7018;50.838;4.226;2022-07-11T04:16:11;15.70;99.90
13896;DHT22;7018;50.838;4.226;2022-07-11T04:18:38;15.80;99.90
13896;DHT22;7018;50.838;4.226;2022-07-11T04:21:05;15.80;99.90
13896;DHT22;7018;50.838;4.226;2022-07-11T04:23:33;15.80;99.90
13896;DHT22;7018;50.838;4.226;2022-07-11T04:26:00;15.80;99.90
13896;DHT22;7018;50.838;4.226;2022-07-11T04:28:27;15.80;99.90
13896;DHT22;7018;50.838;4.226;2022-07-11T04:30:54;15.80;99.90
13896;DHT22;7018;50.838;4.226;2022-07-11T04:33:21;15.90;99.90
13896;DHT22;7018;50.838;4.226;2022-07-11T04:35:48;16.00;99.90
13896;DHT22;7018;50.838;4.226;2022-07-11T04:38:15;16.10;99.90
13896;DHT22;7018;50.838;4.226;2022-07-11T04:40:43;16.20;99.90
13896;DHT22;7018;50.838;4.226;2022-07-11T04:43:10;16.50;99.90
13896;DHT22;7018;50.838;4.226;2022-07-11T04:45:37;16.70;99.90
13896;DHT22;7018;50.838;4.226;2022-07-11T04:48:04;16.80;99.90
13896;DHT22;7018;50.838;4.226;2022-07-11T04:50:31;16.90;99.90
13896;DHT22;7018;50.838;4.226;2022-07-11T04:52:58;16.90;99.90
13896;DHT22;7018;50.838;4.226;2022-07-11T04:55:25;16.80;99.90
13896;DHT22;7018;50.838;4.226;2022-07-11T04:57:52;16.70;99.90
13896;DHT22;7018;50.838;4.226;2022-07-11T05:00:19;16.70;99.90
13896;DHT22;7018;50.838;4.226;2022-07-11T05:02:46;16.60;99.90
13896;DHT22;7018;50.838;4.226;2022-07-11T05:05:13;16.70;99.90
13896;DHT22;7018;50.838;4.226;2022-07-11T05:07:40;16.80;99.90
13896;DHT22;7018;50.838;4.226;2022-07-11T05:10:08;16.80;99.90
13896;DHT22;7018;50.838;4.226;2022-07-11T05:12:35;16.90;99.90
13896;DHT22;7018;50.838;4.226;2022-07-11T05:15:01;17.00;99.90
13896;DHT22;7018;50.838;4.226;2022-07-11T05:17:29;17.00;99.90
13896;DHT22;7018;50.838;4.226;2022-07-11T05:19:56;17.10;99.90
13896;DHT22;7018;50.838;4.226;2022-07-11T05:22:23;17.20;99.90
13896;DHT22;7018;50.838;4.226;2022-07-11T05:24:49;17.30;99.90
13896;DHT22;7018;50.838;4.226;2022-07-11T05:27:16;17.20;99.90
13896;DHT22;7018;50.838;4.226;2022-07-11T05:29:43;17.30;99.90
13896;DHT22;7018;50.838;4.226;2022-07-11T05:32:10;17.30;99.90
13896;DHT22;7018;50.838;4.226;2022-07-11T05:34:37;17.40;99.90
13896;DHT22;7018;50.838;4.226;2022-07-11T05:37:04;17.30;99.90
13896;DHT22;7018;50.838;4.226;2022-07-11T05:39:31;17.30;99.90
13896;DHT22;7018;50.838;4.226;2022-07-11T05:41:58;17.40;99.90
13896;DHT22;7018;50.838;4.226;2022-07-11T05:44:25;17.50;99.90
13896;DHT22;7018;50.838;4.226;2022-07-11T05:46:52;17.60;99.90
13896;DHT22;7018;50.838;4.226;2022-07-11T05:49:19;17.60;99.90
13896;DHT22;7018;50.838;4.226;2022-07-11T05:51:46;17.70;99.90
13896;DHT22;7018;50.838;4.226;2022-07-11T05:54:13;17.60;99.90
13896;DHT22;7018;50.838;4.226;2022-07-11T05:56:40;17.70;99.90
13896;DHT22;7018;50.838;4.226;2022-07-11T05:59:07;17.70;99.90
13896;DHT22;7018;50.838;4.226;2022-07-11T06:01:34;17.80;99.90
13896;DHT22;7018;50.838;4.226;2022-07-11T06:04:02;17.80;99.90
13896;DHT22;7018;50.838;4.226;2022-07-11T06:06:29;18.00;99.90
13896;DHT22;7018;50.838;4.226;2022-07-11T06:08:56;18.10;99.90
13896;DHT22;7018;50.838;4.226;2022-07-11T06:11:23;18.20;99.90
13896;DHT22;7018;50.838;4.226;2022-07-11T06:13:50;18.30;99.90
13896;DHT22;7018;50.838;4.226;2022-07-11T06:16:19;18.40;99.90
13896;DHT22;7018;50.838;4.226;2022-07-11T06:18:46;18.40;99.90
13896;DHT22;7018;50.838;4.226;2022-07-11T06:21:13;18.40;99.90
13896;DHT22;7018;50.838;4.226;2022-07-11T06:23:40;18.40;99.90
13896;DHT22;7018;50.838;4.226;2022-07-11T06:26:09;18.30;99.90
13896;DHT22;7018;50.838;4.226;2022-07-11T06:28:38;18.30;99.90
13896;DHT22;7018;50.838;4.226;2022-07-11T06:31:05;18.30;99.90
13896;DHT22;7018;50.838;4.226;2022-07-11T06:33:32;18.30;99.90
13896;DHT22;7018;50.838;4.226;2022-07-11T06:36:00;18.30;99.90
13896;DHT22;7018;50.838;4.226;2022-07-11T06:38:28;18.40;99.90
13896;DHT22;7018;50.838;4.226;2022-07-11T06:40:55;18.40;99.90
13896;DHT22;7018;50.838;4.226;2022-07-11T06:43:23;18.50;99.90
13896;DHT22;7018;50.838;4.226;2022-07-11T06:45:50;18.50;99.90
13896;DHT22;7018;50.838;4.226;2022-07-11T06:48:17;18.60;99.90
13896;DHT22;7018;50.838;4.226;2022-07-11T06:50:44;18.70;99.90
13896;DHT22;7018;50.838;4.226;2022-07-11T06:53:11;18.80;99.90
13896;DHT22;7018;50.838;4.226;2022-07-11T06:55:38;18.90;99.90
13896;DHT22;7018;50.838;4.226;2022-07-11T06:58:05;18.80;99.90
13896;DHT22;7018;50.838;4.226;2022-07-11T07:00:48;18.70;99.90
13896;DHT22;7018;50.838;4.226;2022-07-11T07:03:15;18.80;99.90
13896;DHT22;7018;50.838;4.226;2022-07-11T07:05:44;19.00;99.90
13896;DHT22;7018;50.838;4.226;2022-07-11T07:08:17;19.10;99.90
13896;DHT22;7018;50.838;4.226;2022-07-11T07:10:44;19.10;99.90
13896;DHT22;7018;50.838;4.226;2022-07-11T07:13:11;19.20;99.90
13896;DHT22;7018;50.838;4.226;2022-07-11T07:15:38;19.30;99.90
13896;DHT22;7018;50.838;4.226;2022-07-11T07:18:05;19.40;99.90
13896;DHT22;7018;50.838;4.226;2022-07-11T07:20:32;19.40;99.90
13896;DHT22;7018;50.838;4.226;2022-07-11T07:22:59;19.50;99.90
13896;DHT22;7018;50.838;4.226;2022-07-11T07:25:25;19.60;99.90
13896;DHT22;7018;50.838;4.226;2022-07-11T07:27:52;19.60;99.90
13896;DHT22;7018;50.838;4.226;2022-07-11T07:30:19;19.60;99.90
13896;DHT22;7018;50.838;4.226;2022-07-11T07:32:46;19.70;99.90
13896;DHT22;7018;50.838;4.226;2022-07-11T07:35:13;19.70;99.90
13896;DHT22;7018;50.838;4.226;2022-07-11T07:37:40;19.80;99.90
13896;DHT22;7018;50.838;4.226;2022-07-11T07:40:07;19.90;99.90
13896;DHT22;7018;50.838;4.226;2022-07-11T07:42:34;20.10;99.90
13896;DHT22;7018;50.838;4.226;2022-07-11T07:45:01;20.10;99.90
13896;DHT22;7018;50.838;4.226;2022-07-11T07:47:28;20.10;99.90
13896;DHT22;7018;50.838;4.226;2022-07-11T07:49:56;20.20;99.90
13896;DHT22;7018;50.838;4.226;2022-07-11T07:52:23;20.30;99.90
13896;DHT22;7018;50.838;4.226;2022-07-11T07:54:50;20.40;99.90
13896;DHT22;7018;50.838;4.226;2022-07-11T07:57:17;20.50;99.90
13896;DHT22;7018;50.838;4.226;2022-07-11T07:59:44;20.40;99.90
13896;DHT22;7018;50.838;4.226;2022-07-11T08:02:11;20.60;99.90
13896;DHT22;7018;50.838;4.226;2022-07-11T08:04:38;20.60;99.90
13896;DHT22;7018;50.838;4.226;2022-07-11T08:07:05;20.60;99.90
13896;DHT22;7018;50.838;4.226;2022-07-11T08:09:31;20.70;99.90
13896;DHT22;7018;50.838;4.226;2022-07-11T08:11:58;20.80;99.90
13896;DHT22;7018;50.838;4.226;2022-07-11T08:14:25;20.60;99.90
13896;DHT22;7018;50.838;4.226;2022-07-11T08:16:52;20.70;99.90
13896;DHT22;7018;50.838;4.226;2022-07-11T08:19:19;20.90;99.90
13896;DHT22;7018;50.838;4.226;2022-07-11T08:21:46;20.90;99.90
13896;DHT22;7018;50.838;4.226;2022-07-11T08:24:13;21.00;99.90
13896;DHT22;7018;50.838;4.226;2022-07-11T08:26:40;21.10;99.90
13896;DHT22;7018;50.838;4.226;2022-07-11T08:29:07;21.20;99.90
13896;DHT22;7018;50.838;4.226;2022-07-11T08:31:34;21.30;99.90
13896;DHT22;7018;50.838;4.226;2022-07-11T08:34:03;21.20;99.90
13896;DHT22;7018;50.838;4.226;2022-07-11T08:36:30;21.30;99.90
13896;DHT22;7018;50.838;4.226;2022-07-11T08:39:01;21.40;99.90
13896;DHT22;7018;50.838;4.226;2022-07-11T08:41:28;21.30;99.90
13896;DHT22;7018;50.838;4.226;2022-07-11T08:43:55;21.30;99.90
13896;DHT22;7018;50.838;4.226;2022-07-11T08:46:22;21.20;99.90
13896;DHT22;7018;50.838;4.226;2022-07-11T08:48:49;21.20;99.90
13896;DHT22;7018;50.838;4.226;2022-07-11T08:51:16;21.20;99.90
13896;DHT22;7018;50.838;4.226;2022-07-11T08:53:43;21.30;99.90
13896;DHT22;7018;50.838;4.226;2022-07-11T08:56:13;21.40;99.90
13896;DHT22;7018;50.838;4.226;2022-07-11T08:58:44;21.30;99.90
13896;DHT22;7018;50.838;4.226;2022-07-11T09:01:15;21.40;99.90
13896;DHT22;7018;50.838;4.226;2022-07-11T09:03:43;21.50;99.90
13896;DHT22;7018;50.838;4.226;2022-07-11T09:06:11;21.60;99.90
13896;DHT22;7018;50.838;4.226;2022-07-11T09:08:38;21.60;99.90
13896;DHT22;7018;50.838;4.226;2022-07-11T09:11:05;21.70;99.90
13896;DHT22;7018;50.838;4.226;2022-07-11T09:13:33;21.80;99.90
13896;DHT22;7018;50.838;4.226;2022-07-11T09:16:01;21.80;99.90
13896;DHT22;7018;50.838;4.226;2022-07-11T09:18:30;21.90;99.90
13896;DHT22;7018;50.838;4.226;2022-07-11T09:21:07;22.00;99.90
13896;DHT22;7018;50.838;4.226;2022-07-11T09:23:53;21.90;99.90
13896;DHT22;7018;50.838;4.226;2022-07-11T09:26:42;22.10;99.90
13896;DHT22;7018;50.838;4.226;2022-07-11T09:29:10;22.10;99.90
13896;DHT22;7018;50.838;4.226;2022-07-11T09:31:38;22.10;99.90
13896;DHT22;7018;50.838;4.226;2022-07-11T09:34:06;22.00;99.90
13896;DHT22;7018;50.838;4.226;2022-07-11T09:39:02;22.20;99.90
13896;DHT22;7018;50.838;4.226;2022-07-11T09:41:33;22.30;99.90
13896;DHT22;7018;50.838;4.226;2022-07-11T09:44:07;22.40;99.90
13896;DHT22;7018;50.838;4.226;2022-07-11T09:46:35;22.40;99.90
13896;DHT22;7018;50.838;4.226;2022-07-11T09:49:03;22.50;99.90
13896;DHT22;7018;50.838;4.226;2022-07-11T09:51:31;22.40;99.90
13896;DHT22;7018;50.838;4.226;2022-07-11T09:53:58;22.50;99.90
13896;DHT22;7018;50.838;4.226;2022-07-11T09:56:26;22.50;99.90
13896;DHT22;7018;50.838;4.226;2022-07-11T09:59:18;22.60;99.90
13896;DHT22;7018;50.838;4.226;2022-07-11T10:01:45;22.70;99.90
13896;DHT22;7018;50.838;4.226;2022-07-11T10:04:12;22.70;99.90
13896;DHT22;7018;50.838;4.226;2022-07-11T10:06:43;22.70;99.90
13896;DHT22;7018;50.838;4.226;2022-07-11T10:09:10;22.80;99.90
13896;DHT22;7018;50.838;4.226;2022-07-11T10:11:37;23.00;99.90
13896;DHT22;7018;50.838;4.226;2022-07-11T10:14:05;23.00;99.90
13896;DHT22;7018;50.838;4.226;2022-07-11T10:16:42;23.10;99.90
13896;DHT22;7018;50.838;4.226;2022-07-11T10:21:48;23.10;99.90
13896;DHT22;7018;50.838;4.226;2022-07-11T10:24:28;23.10;99.90
13896;DHT22;7018;50.838;4.226;2022-07-11T10:27:05;23.10;99.90
13896;DHT22;7018;50.838;4.226;2022-07-11T10:32:10;23.40;99.90
13896;DHT22;7018;50.838;4.226;2022-07-11T10:34:39;23.40;99.90
13896;DHT22;7018;50.838;4.226;2022-07-11T10:37:07;23.40;99.90
13896;DHT22;7018;50.838;4.226;2022-07-11T10:39:35;23.30;99.90
13896;DHT22;7018;50.838;4.226;2022-07-11T10:42:03;23.40;99.90
13896;DHT22;7018;50.838;4.226;2022-07-11T10:44:50;23.40;99.90
13896;DHT22;7018;50.838;4.226;2022-07-11T10:47:31;23.50;99.90
13896;DHT22;7018;50.838;4.226;2022-07-11T10:49:58;23.40;99.90
13896;DHT22;7018;50.838;4.226;2022-07-11T10:52:27;23.60;99.90
13896;DHT22;7018;50.838;4.226;2022-07-11T10:55:03;23.80;99.90
13896;DHT22;7018;50.838;4.226;2022-07-11T10:57:33;23.90;99.90
13896;DHT22;7018;50.838;4.226;2022-07-11T11:02:32;24.40;99.90
13896;DHT22;7018;50.838;4.226;2022-07-11T11:08:06;24.70;99.90
13896;DHT22;7018;50.838;4.226;2022-07-11T11:10:51;24.50;99.90
13896;DHT22;7018;50.838;4.226;2022-07-11T11:13:18;24.40;99.90
13896;DHT22;7018;50.838;4.226;2022-07-11T11:15:48;24.30;99.90
13896;DHT22;7018;50.838;4.226;2022-07-11T11:23:38;24.40;99.90
13896;DHT22;7018;50.838;4.226;2022-07-11T11:28:36;24.80;99.90
13896;DHT22;7018;50.838;4.226;2022-07-11T11:31:05;24.60;99.90
13896;DHT22;7018;50.838;4.226;2022-07-11T11:33:34;24.30;99.90
13896;DHT22;7018;50.838;4.226;2022-07-11T11:36:07;24.10;99.90
13896;DHT22;7018;50.838;4.226;2022-07-11T11:38:35;24.10;99.90
13896;DHT22;7018;50.838;4.226;2022-07-11T11:41:02;24.30;99.90
13896;DHT22;7018;50.838;4.226;2022-07-11T11:43:29;24.30;99.90
13896;DHT22;7018;50.838;4.226;2022-07-11T11:45:56;24.30;99.90
13896;DHT22;7018;50.838;4.226;2022-07-11T11:48:30;24.50;99.90
13896;DHT22;7018;50.838;4.226;2022-07-11T11:53:28;24.50;99.90
13896;DHT22;7018;50.838;4.226;2022-07-11T11:55:58;24.20;99.90
13896;DHT22;7018;50.838;4.226;2022-07-11T11:58:24;24.10;99.90
13896;DHT22;7018;50.838;4.226;2022-07-11T12:00:55;24.10;99.90
13896;DHT22;7018;50.838;4.226;2022-07-11T12:06:16;24.20;99.90
13896;DHT22;7018;50.838;4.226;2022-07-11T12:08:43;24.40;99.90
13896;DHT22;7018;50.838;4.226;2022-07-11T12:11:13;24.40;99.90
13896;DHT22;7018;50.838;4.226;2022-07-11T12:13:41;24.50;99.90
13896;DHT22;7018;50.838;4.226;2022-07-11T12:16:12;24.60;99.90
13896;DHT22;7018;50.838;4.226;2022-07-11T12:18:57;24.70;99.90
13896;DHT22;7018;50.838;4.226;2022-07-11T12:21:24;24.90;99.90
13896;DHT22;7018;50.838;4.226;2022-07-11T12:23:51;24.90;99.90
13896;DHT22;7018;50.838;4.226;2022-07-11T12:26:18;24.90;99.90
13896;DHT22;7018;50.838;4.226;2022-07-11T12:31:40;25.10;99.90
13896;DHT22;7018;50.838;4.226;2022-07-11T12:34:07;25.30;99.90
13896;DHT22;7018;50.838;4.226;2022-07-11T12:36:34;25.40;99.90
13896;DHT22;7018;50.838;4.226;2022-07-11T12:39:00;25.60;99.90
13896;DHT22;7018;50.838;4.226;2022-07-11T12:41:31;25.70;99.90
13896;DHT22;7018;50.838;4.226;2022-07-11T12:43:58;25.60;99.90
13896;DHT22;7018;50.838;4.226;2022-07-11T12:46:44;25.60;99.90
13896;DHT22;7018;50.838;4.226;2022-07-11T12:49:14;25.70;99.90
13896;DHT22;7018;50.838;4.226;2022-07-11T12:51:42;25.70;99.90
13896;DHT22;7018;50.838;4.226;2022-07-11T12:54:10;25.70;99.90
13896;DHT22;7018;50.838;4.226;2022-07-11T12:56:38;25.80;99.90
13896;DHT22;7018;50.838;4.226;2022-07-11T12:59:05;25.70;99.90
13896;DHT22;7018;50.838;4.226;2022-07-11T13:01:36;25.60;99.90
13896;DHT22;7018;50.838;4.226;2022-07-11T13:04:03;25.40;99.90
13896;DHT22;7018;50.838;4.226;2022-07-11T13:06:30;25.60;99.90
13896;DHT22;7018;50.838;4.226;2022-07-11T13:09:23;25.70;99.90
13896;DHT22;7018;50.838;4.226;2022-07-11T13:11:51;25.70;99.90
13896;DHT22;7018;50.838;4.226;2022-07-11T13:14:18;25.70;99.90
13896;DHT22;7018;50.838;4.226;2022-07-11T13:17:03;25.80;99.90
13896;DHT22;7018;50.838;4.226;2022-07-11T13:19:30;25.90;99.90
13896;DHT22;7018;50.838;4.226;2022-07-11T13:21:57;26.10;99.90
13896;DHT22;7018;50.838;4.226;2022-07-11T13:24:24;26.20;99.90
13896;DHT22;7018;50.838;4.226;2022-07-11T13:26:51;26.30;99.90
13896;DHT22;7018;50.838;4.226;2022-07-11T13:29:18;26.30;99.90
13896;DHT22;7018;50.838;4.226;2022-07-11T13:31:45;26.10;99.90
13896;DHT22;7018;50.838;4.226;2022-07-11T13:34:12;25.90;99.90
13896;DHT22;7018;50.838;4.226;2022-07-11T13:36:39;25.90;99.90
13896;DHT22;7018;50.838;4.226;2022-07-11T13:39:06;25.90;99.90
13896;DHT22;7018;50.838;4.226;2022-07-11T13:41:33;25.80;99.90
13896;DHT22;7018;50.838;4.226;2022-07-11T13:44:00;25.80;99.90
13896;DHT22;7018;50.838;4.226;2022-07-11T13:46:28;26.00;99.90
13896;DHT22;7018;50.838;4.226;2022-07-11T13:48:55;26.20;99.90
13896;DHT22;7018;50.838;4.226;2022-07-11T13:51:22;26.40;99.90
13896;DHT22;7018;50.838;4.226;2022-07-11T13:53:49;26.50;99.90
13896;DHT22;7018;50.838;4.226;2022-07-11T13:56:16;26.40;99.90
13896;DHT22;7018;50.838;4.226;2022-07-11T13:58:43;26.40;99.90
13896;DHT22;7018;50.838;4.226;2022-07-11T14:01:10;26.50;99.90
13896;DHT22;7018;50.838;4.226;2022-07-11T14:03:37;26.50;99.90
13896;DHT22;7018;50.838;4.226;2022-07-11T14:06:04;26.60;99.90
13896;DHT22;7018;50.838;4.226;2022-07-11T14:08:31;26.60;99.90
13896;DHT22;7018;50.838;4.226;2022-07-11T14:10:58;26.70;99.90
13896;DHT22;7018;50.838;4.226;2022-07-11T14:13:25;26.70;99.90
13896;DHT22;7018;50.838;4.226;2022-07-11T14:15:52;26.80;99.90
13896;DHT22;7018;50.838;4.226;2022-07-11T14:18:19;26.80;99.90
13896;DHT22;7018;50.838;4.226;2022-07-11T14:20:46;26.80;99.90
13896;DHT22;7018;50.838;4.226;2022-07-11T14:23:13;26.70;99.90
13896;DHT22;7018;50.838;4.226;2022-07-11T14:25:40;26.60;99.90
13896;DHT22;7018;50.838;4.226;2022-07-11T14:28:08;26.60;99.90
13896;DHT22;7018;50.838;4.226;2022-07-11T14:30:35;26.70;99.90
13896;DHT22;7018;50.838;4.226;2022-07-11T14:33:02;26.80;99.90
13896;DHT22;7018;50.838;4.226;2022-07-11T14:35:29;27.10;99.90
13896;DHT22;7018;50.838;4.226;2022-07-11T14:37:56;27.20;99.90
13896;DHT22;7018;50.838;4.226;2022-07-11T14:40:23;27.60;99.90
13896;DHT22;7018;50.838;4.226;2022-07-11T14:42:54;27.80;99.90
13896;DHT22;7018;50.838;4.226;2022-07-11T14:45:21;28.00;99.90
13896;DHT22;7018;50.838;4.226;2022-07-11T14:47:49;28.00;99.90
13896;DHT22;7018;50.838;4.226;2022-07-11T14:50:16;27.90;99.90
13896;DHT22;7018;50.838;4.226;2022-07-11T14:52:43;27.80;99.90
13896;DHT22;7018;50.838;4.226;2022-07-11T14:55:11;27.80;99.90
13896;DHT22;7018;50.838;4.226;2022-07-11T14:57:38;27.80;99.90
13896;DHT22;7018;50.838;4.226;2022-07-11T15:00:07;27.70;99.90
13896;DHT22;7018;50.838;4.226;2022-07-11T15:02:34;27.60;99.90
13896;DHT22;7018;50.838;4.226;2022-07-11T15:05:19;27.50;99.90
13896;DHT22;7018;50.838;4.226;2022-07-11T15:07:47;27.60;99.90
13896;DHT22;7018;50.838;4.226;2022-07-11T15:10:32;27.60;99.90
13896;DHT22;7018;50.838;4.226;2022-07-11T15:13:21;27.50;99.90
13896;DHT22;7018;50.838;4.226;2022-07-11T15:15:50;27.70;99.90
13896;DHT22;7018;50.838;4.226;2022-07-11T15:18:17;27.80;99.90
13896;DHT22;7018;50.838;4.226;2022-07-11T15:20:43;27.90;99.90
13896;DHT22;7018;50.838;4.226;2022-07-11T15:23:10;27.90;99.90
13896;DHT22;7018;50.838;4.226;2022-07-11T15:25:37;27.90;99.90
13896;DHT22;7018;50.838;4.226;2022-07-11T15:28:04;27.90;99.90
13896;DHT22;7018;50.838;4.226;2022-07-11T15:30:32;27.90;99.90
13896;DHT22;7018;50.838;4.226;2022-07-11T15:32:59;27.80;99.90
13896;DHT22;7018;50.838;4.226;2022-07-11T15:35:26;27.60;99.90
13896;DHT22;7018;50.838;4.226;2022-07-11T15:37:53;27.50;99.90
13896;DHT22;7018;50.838;4.226;2022-07-11T15:40:20;27.20;99.90
13896;DHT22;7018;50.838;4.226;2022-07-11T15:42:47;27.10;99.90
13896;DHT22;7018;50.838;4.226;2022-07-11T15:45:14;27.20;99.90
13896;DHT22;7018;50.838;4.226;2022-07-11T15:47:42;27.40;99.90
13896;DHT22;7018;50.838;4.226;2022-07-11T15:50:09;27.70;99.90
13896;DHT22;7018;50.838;4.226;2022-07-11T15:52:36;27.60;99.90
13896;DHT22;7018;50.838;4.226;2022-07-11T15:55:04;27.70;99.90
13896;DHT22;7018;50.838;4.226;2022-07-11T15:57:31;27.80;99.90
13896;DHT22;7018;50.838;4.226;2022-07-11T15:59:58;27.90;99.90
13896;DHT22;7018;50.838;4.226;2022-07-11T16:02:28;27.80;99.90
13896;DHT22;7018;50.838;4.226;2022-07-11T16:04:55;28.00;99.90
13896;DHT22;7018;50.838;4.226;2022-07-11T16:07:21;28.20;99.90
13896;DHT22;7018;50.838;4.226;2022-07-11T16:09:48;28.40;99.90
13896;DHT22;7018;50.838;4.226;2022-07-11T16:12:15;28.60;99.90
13896;DHT22;7018;50.838;4.226;2022-07-11T16:14:42;28.70;99.90
13896;DHT22;7018;50.838;4.226;2022-07-11T16:17:09;28.80;99.90
13896;DHT22;7018;50.838;4.226;2022-07-11T16:19:36;29.00;99.90
13896;DHT22;7018;50.838;4.226;2022-07-11T16:22:03;28.90;99.90
13896;DHT22;7018;50.838;4.226;2022-07-11T16:24:30;29.00;99.90